createdAt,value
2023-02-24T00:00:32.194Z,99267.66
2023-02-24T00:03:05.721Z,99268.25
2023-02-24T00:05:39.220Z,99261.53
2023-02-24T00:08:07.603Z,99250.25
2023-02-24T00:10:37.772Z,99258.47
2023-02-24T00:13:05.715Z,99266.00
2023-02-24T00:15:35.216Z,99218.97
2023-02-24T00:18:07.026Z,99255.00
2023-02-24T00:20:35.760Z,99244.38
2023-02-24T00:23:04.094Z,99244.94
2023-02-24T00:25:32.017Z,99239.19
2023-02-24T00:28:01.780Z,99231.13
2023-02-24T00:30:31.555Z,99234.00
2023-02-24T00:33:02.510Z,99237.53
2023-02-24T00:35:31.966Z,99227.50
2023-02-24T00:38:00.723Z,99217.41
2023-02-24T00:40:30.716Z,99237.53
2023-02-24T00:43:00.732Z,99223.53
2023-02-24T00:45:30.826Z,99231.16
2023-02-24T00:48:00.184Z,99216.13
2023-02-24T00:50:28.111Z,99221.19
2023-02-24T00:52:56.044Z,99216.09
2023-02-24T00:55:24.222Z,99211.06
2023-02-24T00:57:54.544Z,99209.34
2023-02-24T01:00:23.414Z,99207.63
2023-02-24T01:02:51.301Z,99211.06
2023-02-24T01:05:21.217Z,99200.16
2023-02-24T01:07:49.119Z,99202.59
2023-02-24T01:10:18.243Z,99205.06
2023-02-24T01:12:53.935Z,99202.66
2023-02-24T01:15:23.354Z,99198.75
2023-02-24T01:17:51.340Z,99201.44
2023-02-24T01:20:20.880Z,99193.19
2023-02-24T01:22:51.215Z,99190.72
2023-02-24T01:25:20.304Z,99189.19
2023-02-24T01:27:48.820Z,99181.69
2023-02-24T01:30:16.955Z,99182.69
2023-02-24T01:32:46.653Z,99174.41
2023-02-24T01:35:15.001Z,99168.44
2023-02-24T01:37:45.239Z,99170.13
2023-02-24T01:40:20.960Z,99168.44
2023-02-24T01:42:49.368Z,99167.75
2023-02-24T01:45:24.737Z,99161.19
2023-02-24T01:47:54.435Z,99157.09
2023-02-24T01:50:26.088Z,99157.09
2023-02-24T01:52:59.768Z,99155.28
2023-02-24T01:55:32.209Z,99153.53
2023-02-24T01:58:02.968Z,99153.41
2023-02-24T02:00:37.771Z,99137.22
2023-02-24T02:03:15.347Z,99139.63
2023-02-24T02:05:45.149Z,99138.06
2023-02-24T02:08:16.733Z,99122.25
2023-02-24T02:10:45.618Z,99138.19
2023-02-24T02:13:16.584Z,99124.81
2023-02-24T02:15:53.777Z,99105.34
2023-02-24T02:18:33.295Z,99117.06
2023-02-24T02:21:32.650Z,99113.84
2023-02-24T02:24:24.621Z,99106.50
2023-02-24T02:27:29.499Z,99107.44
2023-02-24T02:30:24.904Z,99104.94
2023-02-24T02:33:44.221Z,99104.94
2023-02-24T02:36:23.570Z,99099.03
2023-02-24T02:38:57.540Z,99097.44
2023-02-24T02:41:31.638Z,99099.22
2023-02-24T02:44:08.605Z,99091.75
2023-02-24T02:46:43.388Z,99085.13
2023-02-24T02:49:17.570Z,99094.28
2023-02-24T02:51:52.740Z,99090.09
2023-02-24T02:54:30.410Z,99099.28
2023-02-24T02:57:03.186Z,99079.25
2023-02-24T02:59:35.896Z,99071.47
2023-02-24T03:02:14.720Z,99080.56
2023-02-24T03:04:48.559Z,99072.19
2023-02-24T03:07:20.309Z,99078.91
2023-02-24T03:09:52.772Z,99073.88
2023-02-24T03:12:23.991Z,99067.91
2023-02-24T03:14:59.417Z,99062.91
2023-02-24T03:17:31.691Z,99060.88
2023-02-24T03:20:15.542Z,99064.94
2023-02-24T03:22:49.876Z,99065.44
2023-02-24T03:25:24.155Z,99061.81
2023-02-24T03:27:57.019Z,99065.66
2023-02-24T03:30:30.198Z,99065.56
2023-02-24T03:33:05.608Z,99052.03
2023-02-24T03:35:38.329Z,99061.91
2023-02-24T03:38:10.154Z,99057.59
2023-02-24T03:40:39.197Z,99057.59
2023-02-24T03:43:16.916Z,99049.97
2023-02-24T03:45:46.639Z,99052.44
2023-02-24T03:48:16.145Z,99046.59
2023-02-24T03:50:47.022Z,99050.72
2023-02-24T03:53:42.354Z,99049.72
2023-02-24T03:56:22.422Z,99046.38
2023-02-24T03:59:00.395Z,99044.63
2023-02-24T04:01:37.646Z,99045.22
2023-02-24T04:04:13.892Z,99046.03
2023-02-24T04:06:56.469Z,99039.41
2023-02-24T04:09:33.174Z,99036.91
2023-02-24T04:12:13.920Z,99024.50
2023-02-24T04:14:50.091Z,99033.78
2023-02-24T04:17:21.843Z,99018.69
2023-02-24T04:19:54.203Z,99022.22
2023-02-24T04:22:25.123Z,99027.19
2023-02-24T04:24:59.654Z,99025.59
2023-02-24T04:27:29.188Z,99014.19
2023-02-24T04:30:11.691Z,99020.34
2023-02-24T04:32:42.814Z,99008.78
2023-02-24T04:35:16.709Z,99011.06
2023-02-24T04:37:50.462Z,99002.94
2023-02-24T04:40:22.954Z,99007.28
2023-02-24T04:42:52.780Z,98991.56
2023-02-24T04:45:23.268Z,98993.19
2023-02-24T04:47:56.284Z,98994.84
2023-02-24T04:50:26.100Z,98989.88
2023-02-24T04:52:55.967Z,98993.41
2023-02-24T04:55:29.374Z,98988.50
2023-02-24T04:57:58.060Z,98988.53
2023-02-24T05:00:26.973Z,98985.16
2023-02-24T05:02:56.431Z,98991.72
2023-02-24T05:05:27.398Z,98987.56
2023-02-24T05:07:56.195Z,98983.28
2023-02-24T05:10:27.832Z,98990.56
2023-02-24T05:12:58.259Z,98986.19
2023-02-24T05:15:31.298Z,98979.31
2023-02-24T05:18:00.944Z,98978.50
2023-02-24T05:20:46.691Z,98979.53
2023-02-24T05:23:16.893Z,98975.59
2023-02-24T05:25:46.387Z,98974.75
2023-02-24T05:28:14.361Z,98975.44
2023-02-24T05:30:42.330Z,98967.13
2023-02-24T05:33:10.598Z,98970.31
2023-02-24T05:35:38.652Z,98971.13
2023-02-24T05:38:08.228Z,98968.66
2023-02-24T05:40:36.156Z,98977.69
2023-02-24T05:43:05.717Z,98985.22
2023-02-24T05:45:34.267Z,98980.22
2023-02-24T05:48:02.316Z,98980.13
2023-02-24T05:50:32.187Z,98979.25
2023-02-24T05:53:00.093Z,98971.03
2023-02-24T05:55:27.944Z,98967.00
2023-02-24T05:57:56.683Z,98966.44
2023-02-24T06:00:26.125Z,98943.84
2023-02-24T06:02:54.047Z,98963.34
2023-02-24T06:05:27.828Z,98971.69
2023-02-24T06:08:04.745Z,98962.47
2023-02-24T06:10:34.570Z,98965.00
2023-02-24T06:13:02.989Z,98964.16
2023-02-24T06:15:32.462Z,98961.81
2023-02-24T06:18:01.986Z,98953.63
2023-02-24T06:20:32.978Z,98949.72
2023-02-24T06:23:02.048Z,98954.84
2023-02-24T06:25:30.010Z,98950.00
2023-02-24T06:28:01.747Z,98953.47
2023-02-24T06:30:29.868Z,98945.25
2023-02-24T06:32:59.171Z,98941.16
2023-02-24T06:35:27.344Z,98937.06
2023-02-24T06:37:55.885Z,98929.50
2023-02-24T06:40:24.493Z,98949.50
2023-02-24T06:42:55.025Z,98955.25
2023-02-24T06:45:24.403Z,98970.03
2023-02-24T06:47:52.257Z,98971.53
2023-02-24T06:50:21.935Z,98968.03
2023-02-24T06:52:53.179Z,98961.31
2023-02-24T06:55:26.999Z,98960.25
2023-02-24T06:57:57.919Z,98950.00
2023-02-24T07:00:37.080Z,98952.44
2023-02-24T07:03:14.859Z,98949.91
2023-02-24T07:05:50.286Z,98953.38
2023-02-24T07:08:21.089Z,98961.06
2023-02-24T07:10:54.699Z,98956.94
2023-02-24T07:13:24.287Z,98951.09
2023-02-24T07:15:52.286Z,98950.25
2023-02-24T07:18:20.622Z,98934.47
2023-02-24T07:20:49.813Z,98951.44
2023-02-24T07:23:17.992Z,98952.16
2023-02-24T07:25:46.545Z,98938.91
2023-02-24T07:28:14.857Z,98945.56
2023-02-24T07:30:43.463Z,98936.56
2023-02-24T07:33:11.945Z,98943.44
2023-02-24T07:35:41.546Z,98935.22
2023-02-24T07:38:11.008Z,98930.31
2023-02-24T07:40:40.323Z,98933.63
2023-02-24T07:43:08.426Z,98935.34
2023-02-24T07:45:36.255Z,98936.25
2023-02-24T07:48:04.539Z,98927.94
2023-02-24T07:50:32.712Z,98921.47
2023-02-24T07:53:05.610Z,98918.31
2023-02-24T07:55:37.001Z,98895.91
2023-02-24T07:58:05.994Z,98906.91
2023-02-24T08:00:50.128Z,98910.38
2023-02-24T08:03:18.115Z,98910.56
2023-02-24T08:05:46.042Z,98905.50
2023-02-24T08:08:20.833Z,98897.88
2023-02-24T08:10:50.107Z,98887.81
2023-02-24T08:13:19.157Z,98893.03
2023-02-24T08:15:56.446Z,98891.44
2023-02-24T08:18:24.753Z,98889.75
2023-02-24T08:20:53.480Z,98885.47
2023-02-24T08:23:23.404Z,98874.66
2023-02-24T08:25:53.800Z,98879.00
2023-02-24T08:28:26.886Z,98870.13
2023-02-24T08:30:54.946Z,98878.03
2023-02-24T08:33:23.638Z,98871.69
2023-02-24T08:36:01.726Z,98871.91
2023-02-24T08:38:41.761Z,98874.56
2023-02-24T08:41:19.982Z,98863.84
2023-02-24T08:43:49.668Z,98870.56
2023-02-24T08:46:26.387Z,98868.84
2023-02-24T08:48:56.726Z,98867.16
2023-02-24T08:51:28.821Z,98862.16
2023-02-24T08:54:00.416Z,98846.97
2023-02-24T08:56:34.472Z,98862.81
2023-02-24T08:59:06.329Z,98860.25
2023-02-24T09:01:36.841Z,98861.16
2023-02-24T09:04:08.371Z,98863.63
2023-02-24T09:06:40.982Z,98840.84
2023-02-24T09:09:18.376Z,98861.09
2023-02-24T09:11:49.441Z,98865.38
2023-02-24T09:14:27.477Z,98857.94
2023-02-24T09:17:05.488Z,98854.66
2023-02-24T09:19:55.814Z,98864.66
2023-02-24T09:22:42.631Z,98866.09
2023-02-24T09:25:24.031Z,98871.38
2023-02-24T09:28:07.838Z,98860.94
2023-02-24T09:30:37.908Z,98869.78
2023-02-24T09:33:18.105Z,98867.88
2023-02-24T09:35:47.888Z,98853.84
2023-02-24T09:38:17.125Z,98857.34
2023-02-24T09:40:52.068Z,98831.78
2023-02-24T09:43:24.893Z,98831.25
2023-02-24T09:46:02.315Z,98811.56
2023-02-24T09:48:43.787Z,98810.38
2023-02-24T09:51:22.748Z,98804.00
2023-02-24T09:53:56.881Z,98803.44
2023-02-24T09:56:37.161Z,98801.94
2023-02-24T09:59:14.886Z,98803.75
2023-02-24T10:01:52.629Z,98807.16
2023-02-24T10:04:36.253Z,98798.09
2023-02-24T10:07:07.647Z,98804.03
2023-02-24T10:09:39.287Z,98799.97
2023-02-24T10:12:13.758Z,98798.31
2023-02-24T10:14:53.206Z,98795.00
2023-02-24T10:17:30.505Z,98787.56
2023-02-24T10:20:02.482Z,98782.56
2023-02-24T10:22:50.310Z,98777.56
2023-02-24T10:25:36.114Z,98777.59
2023-02-24T10:28:12.988Z,98768.41
2023-02-24T10:31:01.452Z,98764.34
2023-02-24T10:33:37.878Z,98760.13
2023-02-24T10:36:09.316Z,98753.44
2023-02-24T10:38:40.794Z,98748.41
2023-02-24T10:41:11.129Z,98745.91
2023-02-24T10:43:46.134Z,98743.38
2023-02-24T10:46:40.218Z,98744.19
2023-02-24T10:49:16.551Z,98743.28
2023-02-24T10:51:52.369Z,98751.53
2023-02-24T10:54:34.384Z,98741.38
2023-02-24T10:57:18.488Z,98746.31
2023-02-24T11:00:19.569Z,98732.13
2023-02-24T11:03:07.171Z,98728.09
2023-02-24T11:05:44.347Z,98707.41
2023-02-24T11:08:36.709Z,98713.34
2023-02-24T11:11:20.257Z,98698.38
2023-02-24T11:14:09.310Z,98690.09
2023-02-24T11:17:06.860Z,98685.97
2023-02-24T11:19:43.951Z,98678.47
2023-02-24T11:22:16.195Z,98675.97
2023-02-24T11:24:46.719Z,98675.13
2023-02-24T11:27:17.353Z,98654.09
2023-02-24T11:30:15.032Z,98675.06
2023-02-24T11:33:17.345Z,98678.38
2023-02-24T11:35:58.018Z,98657.53
2023-02-24T11:38:35.629Z,98661.75
2023-02-24T11:41:11.619Z,98639.13
2023-02-24T11:43:44.026Z,98658.41
2023-02-24T11:46:16.952Z,98665.03
2023-02-24T11:48:48.681Z,98654.13
2023-02-24T11:51:21.250Z,98652.41
2023-02-24T11:53:53.236Z,98639.78
2023-02-24T11:56:27.180Z,98633.09
2023-02-24T11:59:02.603Z,98639.69
2023-02-24T12:01:36.324Z,98625.47
2023-02-24T12:04:13.705Z,98621.25
2023-02-24T12:06:51.866Z,98623.72
2023-02-24T12:09:24.418Z,98624.56
2023-02-24T12:11:56.388Z,98614.59
2023-02-24T12:14:31.587Z,98612.09
2023-02-24T12:17:07.711Z,98609.63
2023-02-24T12:19:42.307Z,98602.19
2023-02-24T12:22:16.188Z,98589.69
2023-02-24T12:24:49.935Z,98593.09
2023-02-24T12:27:32.472Z,98576.47
2023-02-24T12:30:22.795Z,98569.78
2023-02-24T12:33:01.753Z,98575.66
2023-02-24T12:35:40.549Z,98574.88
2023-02-24T12:38:24.663Z,98566.50
2023-02-24T12:40:59.315Z,98553.09
2023-02-24T12:43:34.740Z,98551.47
2023-02-24T12:46:07.115Z,98544.75
2023-02-24T12:48:58.379Z,98538.91
2023-02-24T12:51:33.898Z,98531.34
2023-02-24T12:54:09.432Z,98531.34
2023-02-24T12:56:47.726Z,98520.47
2023-02-24T12:59:20.363Z,98521.31
2023-02-24T13:01:54.983Z,98517.16
2023-02-24T13:04:51.234Z,98508.78
2023-02-24T13:07:36.561Z,98497.06
2023-02-24T13:10:18.057Z,98499.56
2023-02-24T13:12:52.807Z,98493.69
2023-02-24T13:15:23.285Z,98493.69
2023-02-24T13:17:52.921Z,98480.34
2023-02-24T13:20:32.631Z,98482.81
2023-02-24T13:23:03.503Z,98480.28
2023-02-24T13:25:36.958Z,98477.78
2023-02-24T13:28:07.763Z,98464.41
2023-02-24T13:30:43.397Z,98468.59
2023-02-24T13:33:29.053Z,98465.25
2023-02-24T13:36:12.779Z,98456.88
2023-02-24T13:38:42.611Z,98469.44
2023-02-24T13:41:22.951Z,98464.41
2023-02-24T13:43:59.624Z,98451.84
2023-02-24T13:46:30.908Z,98450.19
2023-02-24T13:49:14.383Z,98447.69
2023-02-24T13:51:59.195Z,98445.19
2023-02-24T13:54:53.975Z,98449.34
2023-02-24T13:57:46.550Z,98450.16
2023-02-24T14:00:25.103Z,98444.25
2023-02-24T14:02:53.617Z,98442.56
2023-02-24T14:05:26.403Z,98431.72
2023-02-24T14:07:55.868Z,98426.66
2023-02-24T14:10:27.050Z,98435.84
2023-02-24T14:13:04.194Z,98426.56
2023-02-24T14:15:33.509Z,98424.88
2023-02-24T14:18:03.001Z,98422.38
2023-02-24T14:20:33.592Z,98417.38
2023-02-24T14:23:02.425Z,98413.22
2023-02-24T14:25:35.523Z,98415.78
2023-02-24T14:28:05.588Z,98409.16
2023-02-24T14:30:36.582Z,98399.97
2023-02-24T14:33:07.473Z,98395.81
2023-02-24T14:35:37.810Z,98389.97
2023-02-24T14:38:06.093Z,98380.78
2023-02-24T14:40:34.390Z,98382.44
2023-02-24T14:43:03.742Z,98384.94
2023-02-24T14:45:33.013Z,98367.31
2023-02-24T14:48:00.884Z,98373.22
2023-02-24T14:50:33.284Z,98369.88
2023-02-24T14:53:05.027Z,98361.56
2023-02-24T14:55:38.121Z,98359.91
2023-02-24T14:58:13.325Z,98360.78
2023-02-24T15:00:49.228Z,98353.31
2023-02-24T15:03:23.545Z,98334.13
2023-02-24T15:05:55.571Z,98345.78
2023-02-24T15:08:32.807Z,98343.28
2023-02-24T15:11:01.105Z,98339.16
2023-02-24T15:13:37.864Z,98336.63
2023-02-24T15:16:13.653Z,98335.81
2023-02-24T15:18:42.256Z,98329.97
2023-02-24T15:21:21.722Z,98319.13
2023-02-24T15:23:49.990Z,98315.78
2023-02-24T15:26:29.850Z,98312.44
2023-02-24T15:28:59.793Z,98308.25
2023-02-24T15:31:30.034Z,98304.91
2023-02-24T15:34:00.878Z,98308.28
2023-02-24T15:36:33.133Z,98303.28
2023-02-24T15:39:04.159Z,98298.25
2023-02-24T15:41:43.250Z,98294.91
2023-02-24T15:44:25.907Z,98283.19
2023-02-24T15:46:55.676Z,98259.00
2023-02-24T15:49:23.654Z,98269.81
2023-02-24T15:51:53.445Z,98256.47
2023-02-24T15:54:29.205Z,98265.66
2023-02-24T15:56:59.406Z,98266.50
2023-02-24T15:59:27.877Z,98265.66
2023-02-24T16:01:57.484Z,98265.66
2023-02-24T16:04:27.544Z,98238.94
2023-02-24T16:06:57.861Z,98258.13
2023-02-24T16:09:33.533Z,98250.63
2023-02-24T16:12:04.386Z,98240.59
2023-02-24T16:14:33.414Z,98238.94
2023-02-24T16:17:06.944Z,98237.28
2023-02-24T16:19:34.900Z,98238.09
2023-02-24T16:22:02.737Z,98233.94
2023-02-24T16:24:30.618Z,98230.56
2023-02-24T16:26:58.544Z,98227.25
2023-02-24T16:29:26.610Z,98223.09
2023-02-24T16:31:54.837Z,98219.72
2023-02-24T16:34:24.172Z,98212.22
2023-02-24T16:36:52.070Z,98213.03
2023-02-24T16:39:20.057Z,98213.88
2023-02-24T16:41:47.943Z,98212.22
2023-02-24T16:44:15.833Z,98219.72
2023-02-24T16:46:45.642Z,98224.72
2023-02-24T16:49:19.556Z,98229.72
2023-02-24T16:51:48.849Z,98222.25
2023-02-24T16:54:16.689Z,98228.91
2023-02-24T16:56:46.451Z,98225.59
2023-02-24T16:59:14.392Z,98220.59
2023-02-24T17:01:42.295Z,98222.25
2023-02-24T17:04:11.075Z,98225.59
2023-02-24T17:06:39.154Z,98219.75
2023-02-24T17:09:08.398Z,98208.91
2023-02-24T17:11:36.247Z,98201.38
2023-02-24T17:14:04.526Z,98209.75
2023-02-24T17:16:32.659Z,98211.41
2023-02-24T17:19:00.578Z,98213.94
2023-02-24T17:21:28.636Z,98209.72
2023-02-24T17:23:56.518Z,98212.22
2023-02-24T17:26:25.832Z,98198.91
2023-02-24T17:28:53.642Z,98205.56
2023-02-24T17:31:22.935Z,98206.41
2023-02-24T17:33:50.980Z,98210.56
2023-02-24T17:36:19.524Z,98196.41
2023-02-24T17:38:47.562Z,98183.06
2023-02-24T17:41:15.509Z,98180.56
2023-02-24T17:43:44.835Z,98182.22
2023-02-24T17:46:12.831Z,98176.38
2023-02-24T17:48:40.726Z,98166.38
2023-02-24T17:51:08.594Z,98159.72
2023-02-24T17:53:36.464Z,98156.38
2023-02-24T17:56:05.654Z,98162.22
2023-02-24T17:58:34.626Z,98158.03
2023-02-24T18:01:05.712Z,98152.19
2023-02-24T18:03:34.481Z,98155.53
2023-02-24T18:06:04.842Z,98153.84
2023-02-24T18:08:34.115Z,98155.53
2023-02-24T18:11:02.027Z,98143.81
2023-02-24T18:13:30.821Z,98149.66
2023-02-24T18:15:59.359Z,98146.31
2023-02-24T18:18:30.325Z,98143.78
2023-02-24T18:21:02.339Z,98140.47
2023-02-24T18:23:30.680Z,98119.59
2023-02-24T18:26:02.320Z,98133.78
2023-02-24T18:28:30.692Z,98117.94
2023-02-24T18:30:58.645Z,98119.63
2023-02-24T18:33:29.265Z,98115.44
2023-02-24T18:35:59.676Z,98114.66
2023-02-24T18:38:28.177Z,98109.63
2023-02-24T18:40:59.878Z,98107.16
2023-02-24T18:43:28.001Z,98111.31
2023-02-24T18:46:00.572Z,98126.34
2023-02-24T18:48:31.426Z,98118.84
2023-02-24T18:51:00.552Z,98126.34
2023-02-24T18:53:31.016Z,98123.84
2023-02-24T18:56:03.303Z,98128.00
2023-02-24T18:58:31.908Z,98147.16
2023-02-24T19:01:00.124Z,98148.00
2023-02-24T19:03:29.546Z,98155.50
2023-02-24T19:05:57.351Z,98151.34
2023-02-24T19:08:25.273Z,98163.00
2023-02-24T19:10:53.214Z,98166.28
2023-02-24T19:13:21.212Z,98154.63
2023-02-24T19:15:49.437Z,98146.28
2023-02-24T19:18:17.782Z,98144.56
2023-02-24T19:20:46.988Z,98144.56
2023-02-24T19:23:14.892Z,98147.88
2023-02-24T19:25:42.862Z,98147.06
2023-02-24T19:28:10.809Z,98143.75
2023-02-24T19:30:39.581Z,98147.06
2023-02-24T19:33:09.624Z,98130.38
2023-02-24T19:35:41.759Z,98145.41
2023-02-24T19:38:14.961Z,98132.09
2023-02-24T19:40:43.727Z,98129.56
2023-02-24T19:43:12.119Z,98121.25
2023-02-24T19:45:41.775Z,98127.09
2023-02-24T19:48:09.880Z,98114.56
2023-02-24T19:50:40.446Z,98125.44
2023-02-24T19:53:08.465Z,98130.44
2023-02-24T19:55:37.713Z,98124.59
2023-02-24T19:58:05.763Z,98114.59
2023-02-24T20:00:33.709Z,98115.41
2023-02-24T20:03:01.584Z,98088.78
2023-02-24T20:05:29.409Z,98097.13
2023-02-24T20:07:57.434Z,98097.94
2023-02-24T20:10:25.307Z,98091.28
2023-02-24T20:12:55.452Z,98082.13
2023-02-24T20:15:23.353Z,98070.47
2023-02-24T20:17:51.220Z,98065.47
2023-02-24T20:20:19.237Z,98053.81
2023-02-24T20:22:47.108Z,98052.97
2023-02-24T20:25:15.327Z,98052.13
2023-02-24T20:27:43.298Z,98056.28
2023-02-24T20:30:14.237Z,98064.59
2023-02-24T20:32:42.395Z,98051.28
2023-02-24T20:35:11.401Z,98052.13
2023-02-24T20:37:39.777Z,98041.28
2023-02-24T20:40:09.203Z,98045.47
2023-02-24T20:42:37.078Z,98051.28
2023-02-24T20:45:05.359Z,98042.97
2023-02-24T20:47:34.568Z,98043.81
2023-02-24T20:50:03.182Z,98038.81
2023-02-24T20:52:31.104Z,98032.97
2023-02-24T20:54:58.958Z,98025.47
2023-02-24T20:57:26.931Z,98018.78
2023-02-24T21:00:03.638Z,98015.47
2023-02-24T21:02:31.917Z,98011.31
2023-02-24T21:05:01.214Z,98010.47
2023-02-24T21:07:29.566Z,98017.97
2023-02-24T21:09:57.407Z,98013.78
2023-02-24T21:12:25.318Z,98023.81
2023-02-24T21:14:53.248Z,98037.97
2023-02-24T21:17:21.323Z,98041.28
2023-02-24T21:19:49.749Z,98025.44
2023-02-24T21:22:19.026Z,98009.63
2023-02-24T21:24:47.106Z,98004.63
2023-02-24T21:27:15.059Z,97998.81
2023-02-24T21:29:42.915Z,97998.78
2023-02-24T21:32:10.945Z,97987.13
2023-02-24T21:34:38.832Z,97977.13
2023-02-24T21:37:07.350Z,97973.81
2023-02-24T21:39:36.760Z,97958.78
2023-02-24T21:42:04.703Z,97960.50
2023-02-24T21:44:32.750Z,97952.97
2023-02-24T21:47:00.904Z,97957.13
2023-02-24T21:49:30.233Z,97953.81
2023-02-24T21:51:58.056Z,97952.16
2023-02-24T21:54:26.868Z,97956.31
2023-02-24T21:56:56.102Z,97951.31
2023-02-24T21:59:23.952Z,97933.81
2023-02-24T22:01:52.041Z,97906.31
2023-02-24T22:04:20.170Z,97920.50
2023-02-24T22:06:48.391Z,97898.00
2023-02-24T22:09:19.195Z,97902.16
2023-02-24T22:11:48.880Z,97895.50
2023-02-24T22:14:18.486Z,97884.69
2023-02-24T22:16:46.349Z,97877.19
2023-02-24T22:19:14.482Z,97877.19
2023-02-24T22:21:43.154Z,97877.19
2023-02-24T22:24:14.278Z,97874.69
2023-02-24T22:26:42.690Z,97873.88
2023-02-24T22:29:10.924Z,97864.72
2023-02-24T22:31:43.308Z,97883.88
2023-02-24T22:34:11.443Z,97878.03
2023-02-24T22:36:39.398Z,97894.69
2023-02-24T22:39:09.333Z,97888.00
2023-02-24T22:41:38.109Z,97887.16
2023-02-24T22:44:07.150Z,97881.34
2023-02-24T22:46:37.259Z,97892.16
2023-02-24T22:49:07.362Z,97879.69
2023-02-24T22:51:35.291Z,97873.84
2023-02-24T22:54:03.386Z,97895.50
2023-02-24T22:56:31.962Z,97888.84
2023-02-24T22:59:00.587Z,97888.84
2023-02-24T23:01:30.243Z,97878.84
2023-02-24T23:04:00.309Z,97883.00
2023-02-24T23:06:30.126Z,97884.66
2023-02-24T23:09:00.061Z,97882.19
2023-02-24T23:11:30.224Z,97892.16
2023-02-24T23:14:00.220Z,97883.84
2023-02-24T23:16:31.680Z,97874.66
2023-02-24T23:19:01.428Z,97864.69
2023-02-24T23:21:35.113Z,97843.03
2023-02-24T23:24:03.991Z,97840.56
2023-02-24T23:26:33.501Z,97846.38
2023-02-24T23:29:01.591Z,97847.22
2023-02-24T23:31:30.052Z,97849.72
2023-02-24T23:33:58.048Z,97829.72
2023-02-24T23:36:27.149Z,97827.22
2023-02-24T23:38:57.556Z,97813.06
2023-02-24T23:41:25.523Z,97795.59
2023-02-24T23:43:53.670Z,97785.59
2023-02-24T23:46:22.525Z,97762.31
2023-02-24T23:48:52.618Z,97768.13
2023-02-24T23:51:21.173Z,97757.28
2023-02-24T23:53:49.415Z,97727.34
2023-02-24T23:56:20.339Z,97760.63
2023-02-24T23:58:51.623Z,97762.28
